createdAt,value
2023-01-26T00:00:57.298Z,1.32
2023-01-26T00:11:04.331Z,1.21
2023-01-26T00:21:08.793Z,1.18
2023-01-26T00:31:16.435Z,1.25
2023-01-26T00:41:37.400Z,1.11
2023-01-26T00:51:39.910Z,1.21
2023-01-26T01:01:42.417Z,1.16
2023-01-26T01:11:45.803Z,1.06
2023-01-26T01:21:50.469Z,1.10
2023-01-26T01:31:53.090Z,1.12
2023-01-26T01:41:55.702Z,1.06
2023-01-26T01:52:07.242Z,1.12
2023-01-26T02:02:11.456Z,1.08
2023-01-26T02:12:18.136Z,1.01
2023-01-26T02:22:34.823Z,1.01
2023-01-26T02:32:38.541Z,1.13
2023-01-26T02:42:44.531Z,1.00
2023-01-26T02:52:47.306Z,0.98
2023-01-26T03:02:56.234Z,0.93
2023-01-26T03:13:00.289Z,1.04
2023-01-26T03:23:22.054Z,0.98
2023-01-26T03:33:28.801Z,0.90
2023-01-26T03:43:50.226Z,0.96
2023-01-26T03:54:12.039Z,0.95
2023-01-26T04:04:33.297Z,0.93
2023-01-26T04:14:55.044Z,1.04
2023-01-26T04:25:00.504Z,1.02
2023-01-26T04:35:05.109Z,1.10
2023-01-26T04:45:10.849Z,1.03
2023-01-26T04:55:14.199Z,0.92
2023-01-26T05:05:18.756Z,0.97
2023-01-26T05:15:21.470Z,0.97
2023-01-26T05:25:37.798Z,1.01
2023-01-26T05:35:44.666Z,0.97
2023-01-26T05:45:47.545Z,1.00
2023-01-26T05:55:51.474Z,0.95
2023-01-26T06:05:57.905Z,1.01
2023-01-26T06:16:09.917Z,1.01
2023-01-26T06:26:13.006Z,0.98
2023-01-26T06:36:17.155Z,1.07
2023-01-26T06:46:23.039Z,1.02
2023-01-26T06:56:29.127Z,1.15
2023-01-26T07:06:50.198Z,1.14
2023-01-26T07:16:52.943Z,1.18
2023-01-26T07:26:56.396Z,1.16
2023-01-26T07:36:59.183Z,1.26
2023-01-26T07:47:01.747Z,1.29
2023-01-26T07:57:07.105Z,1.18
2023-01-26T08:07:09.871Z,1.34
2023-01-26T08:17:13.618Z,1.33
2023-01-26T08:27:17.300Z,1.47
2023-01-26T08:37:20.065Z,1.60
2023-01-26T08:47:22.549Z,1.50
2023-01-26T08:57:25.236Z,1.42
2023-01-26T09:07:28.135Z,1.47
2023-01-26T09:17:30.688Z,1.66
2023-01-26T09:27:33.365Z,1.54
2023-01-26T09:37:36.396Z,1.63
2023-01-26T09:48:00.827Z,1.71
2023-01-26T09:58:07.952Z,1.79
2023-01-26T10:08:16.915Z,1.98
2023-01-26T10:18:28.987Z,2.02
2023-01-26T10:28:35.267Z,2.11
2023-01-26T10:38:37.973Z,2.11
2023-01-26T10:48:52.934Z,2.16
2023-01-26T10:58:59.300Z,2.21
2023-01-26T11:09:18.152Z,2.23
2023-01-26T11:19:46.908Z,2.28
2023-01-26T11:30:06.306Z,2.33
2023-01-26T11:40:26.389Z,2.34
2023-01-26T11:50:33.236Z,2.41
2023-01-26T12:00:41.201Z,2.41
2023-01-26T12:10:46.466Z,2.39
2023-01-26T12:20:59.337Z,2.26
2023-01-26T12:31:22.510Z,2.39
2023-01-26T12:42:00.879Z,2.32
2023-01-26T12:52:12.470Z,2.31
2023-01-26T13:02:34.183Z,2.32
2023-01-26T13:13:14.899Z,2.31
2023-01-26T13:23:40.643Z,2.27
2023-01-26T13:33:43.888Z,2.29
2023-01-26T13:43:50.491Z,2.27
2023-01-26T13:54:13.675Z,2.26
2023-01-26T14:04:21.519Z,2.10
2023-01-26T14:14:27.042Z,2.02
2023-01-26T14:24:41.406Z,1.87
2023-01-26T14:34:55.622Z,1.89
2023-01-26T14:44:59.021Z,1.77
2023-01-26T14:55:26.556Z,1.69
2023-01-26T15:05:35.811Z,1.66
2023-01-26T15:16:01.372Z,1.73
2023-01-26T15:26:27.992Z,1.69
2023-01-26T15:36:50.800Z,1.55
2023-01-26T15:46:55.278Z,1.53
2023-01-26T15:56:57.916Z,1.55
2023-01-26T16:07:00.634Z,1.42
2023-01-26T16:17:12.595Z,1.34
2023-01-26T16:27:15.824Z,1.29
2023-01-26T16:37:18.544Z,1.27
2023-01-26T16:47:21.399Z,1.22
2023-01-26T16:57:24.063Z,1.13
2023-01-26T17:07:27.004Z,1.09
2023-01-26T17:17:29.600Z,1.13
2023-01-26T17:27:32.362Z,1.18
2023-01-26T17:37:35.864Z,1.17
2023-01-26T17:47:38.790Z,1.09
2023-01-26T17:57:41.427Z,1.02
2023-01-26T18:07:45.177Z,0.97
2023-01-26T18:17:47.845Z,0.97
2023-01-26T18:27:50.475Z,1.00
2023-01-26T18:37:53.341Z,0.96
2023-01-26T18:47:58.434Z,0.97
2023-01-26T18:58:01.037Z,0.91
2023-01-26T19:08:10.335Z,0.82
2023-01-26T19:18:15.093Z,0.84
2023-01-26T19:28:18.308Z,0.80
2023-01-26T19:38:21.402Z,0.78
2023-01-26T19:48:27.928Z,0.76
2023-01-26T19:58:31.685Z,0.78
2023-01-26T20:08:34.546Z,0.76
2023-01-26T20:18:38.526Z,0.70
2023-01-26T20:28:41.385Z,0.69
2023-01-26T20:38:45.375Z,0.65
2023-01-26T20:48:47.891Z,0.64
2023-01-26T20:58:53.505Z,0.63
2023-01-26T21:08:58.820Z,0.62
2023-01-26T21:19:01.454Z,0.56
2023-01-26T21:29:05.578Z,0.52
2023-01-26T21:39:13.469Z,0.49
2023-01-26T21:49:16.760Z,0.52
2023-01-26T21:59:19.784Z,0.40
2023-01-26T22:09:23.947Z,0.48
2023-01-26T22:19:26.619Z,0.47
2023-01-26T22:29:29.620Z,0.45
2023-01-26T22:39:32.150Z,0.44
2023-01-26T22:49:34.591Z,0.41
2023-01-26T22:59:37.269Z,0.44
2023-01-26T23:09:39.947Z,0.39
2023-01-26T23:19:42.871Z,0.41
2023-01-26T23:29:45.344Z,0.37
2023-01-26T23:39:47.734Z,0.36
2023-01-26T23:49:50.323Z,0.33
2023-01-26T23:59:52.904Z,0.50
